sensor_id;sensor_type;location;lat;lon;timestamp;P1;durP1;ratioP1;P2;durP2;ratioP2
82005;SDS011;71529;47.484;19.064;2023-11-19T00:00:20;7.15;;;5.43;;
82005;SDS011;71529;47.484;19.064;2023-11-19T00:02:48;8.18;;;5.10;;
82005;SDS011;71529;47.484;19.064;2023-11-19T00:05:16;6.25;;;4.72;;
82005;SDS011;71529;47.484;19.064;2023-11-19T00:07:45;6.97;;;5.32;;
82005;SDS011;71529;47.484;19.064;2023-11-19T00:10:14;7.75;;;4.97;;
82005;SDS011;71529;47.484;19.064;2023-11-19T00:12:47;7.30;;;5.05;;
82005;SDS011;71529;47.484;19.064;2023-11-19T00:15:17;5.50;;;4.50;;
82005;SDS011;71529;47.484;19.064;2023-11-19T00:17:47;7.45;;;5.35;;
82005;SDS011;71529;47.484;19.064;2023-11-19T00:20:17;12.15;;;5.00;;
82005;SDS011;71529;47.484;19.064;2023-11-19T00:22:46;10.20;;;5.45;;
82005;SDS011;71529;47.484;19.064;2023-11-19T00:25:18;7.50;;;5.60;;
82005;SDS011;71529;47.484;19.064;2023-11-19T00:27:50;7.38;;;5.50;;
82005;SDS011;71529;47.484;19.064;2023-11-19T00:30:20;8.10;;;5.20;;
82005;SDS011;71529;47.484;19.064;2023-11-19T00:32:49;6.90;;;4.85;;
82005;SDS011;71529;47.484;19.064;2023-11-19T00:35:17;8.98;;;6.05;;
82005;SDS011;71529;47.484;19.064;2023-11-19T00:37:45;7.95;;;5.68;;
82005;SDS011;71529;47.484;19.064;2023-11-19T00:40:14;9.10;;;5.43;;
82005;SDS011;71529;47.484;19.064;2023-11-19T00:42:45;6.53;;;4.65;;
82005;SDS011;71529;47.484;19.064;2023-11-19T00:45:16;6.60;;;5.35;;
82005;SDS011;71529;47.484;19.064;2023-11-19T00:47:44;7.65;;;4.82;;
82005;SDS011;71529;47.484;19.064;2023-11-19T00:50:12;6.93;;;5.30;;
82005;SDS011;71529;47.484;19.064;2023-11-19T00:52:40;7.47;;;5.50;;
82005;SDS011;71529;47.484;19.064;2023-11-19T00:55:09;7.80;;;4.72;;
82005;SDS011;71529;47.484;19.064;2023-11-19T00:57:38;6.28;;;5.03;;
82005;SDS011;71529;47.484;19.064;2023-11-19T01:00:07;5.68;;;4.65;;
82005;SDS011;71529;47.484;19.064;2023-11-19T01:02:47;6.30;;;4.78;;
82005;SDS011;71529;47.484;19.064;2023-11-19T01:05:18;7.18;;;5.63;;
82005;SDS011;71529;47.484;19.064;2023-11-19T01:07:50;7.55;;;5.28;;
82005;SDS011;71529;47.484;19.064;2023-11-19T01:10:21;6.68;;;4.55;;
82005;SDS011;71529;47.484;19.064;2023-11-19T01:12:50;6.75;;;5.25;;
82005;SDS011;71529;47.484;19.064;2023-11-19T01:15:19;8.45;;;5.88;;
82005;SDS011;71529;47.484;19.064;2023-11-19T01:17:48;7.97;;;5.57;;
82005;SDS011;71529;47.484;19.064;2023-11-19T01:20:20;8.27;;;5.95;;
82005;SDS011;71529;47.484;19.064;2023-11-19T01:22:48;11.02;;;6.53;;
82005;SDS011;71529;47.484;19.064;2023-11-19T01:25:16;12.75;;;6.82;;
82005;SDS011;71529;47.484;19.064;2023-11-19T01:27:45;10.50;;;6.50;;
82005;SDS011;71529;47.484;19.064;2023-11-19T01:30:13;9.45;;;6.38;;
82005;SDS011;71529;47.484;19.064;2023-11-19T01:32:42;9.63;;;6.10;;
82005;SDS011;71529;47.484;19.064;2023-11-19T01:35:11;9.43;;;6.75;;
82005;SDS011;71529;47.484;19.064;2023-11-19T01:37:40;8.70;;;6.45;;
82005;SDS011;71529;47.484;19.064;2023-11-19T01:40:08;10.40;;;7.40;;
82005;SDS011;71529;47.484;19.064;2023-11-19T01:42:38;15.65;;;8.20;;
82005;SDS011;71529;47.484;19.064;2023-11-19T01:45:07;10.75;;;7.22;;
82005;SDS011;71529;47.484;19.064;2023-11-19T01:47:37;12.77;;;7.10;;
82005;SDS011;71529;47.484;19.064;2023-11-19T01:50:07;11.88;;;7.47;;
82005;SDS011;71529;47.484;19.064;2023-11-19T01:52:37;14.13;;;8.27;;
82005;SDS011;71529;47.484;19.064;2023-11-19T01:55:07;12.40;;;8.07;;
82005;SDS011;71529;47.484;19.064;2023-11-19T01:57:37;11.80;;;7.25;;
82005;SDS011;71529;47.484;19.064;2023-11-19T02:00:08;12.48;;;8.10;;
82005;SDS011;71529;47.484;19.064;2023-11-19T02:02:39;10.77;;;7.85;;
82005;SDS011;71529;47.484;19.064;2023-11-19T02:05:08;11.00;;;7.65;;
82005;SDS011;71529;47.484;19.064;2023-11-19T02:07:38;11.23;;;7.38;;
82005;SDS011;71529;47.484;19.064;2023-11-19T02:10:07;12.23;;;8.02;;
82005;SDS011;71529;47.484;19.064;2023-11-19T02:12:40;11.57;;;8.05;;
82005;SDS011;71529;47.484;19.064;2023-11-19T02:15:10;14.32;;;8.70;;
82005;SDS011;71529;47.484;19.064;2023-11-19T02:17:38;13.63;;;8.45;;
82005;SDS011;71529;47.484;19.064;2023-11-19T02:20:07;11.00;;;7.45;;
82005;SDS011;71529;47.484;19.064;2023-11-19T02:22:40;12.70;;;8.80;;
82005;SDS011;71529;47.484;19.064;2023-11-19T02:25:10;10.80;;;7.65;;
82005;SDS011;71529;47.484;19.064;2023-11-19T02:27:52;15.10;;;8.27;;
82005;SDS011;71529;47.484;19.064;2023-11-19T02:30:23;13.00;;;8.82;;
82005;SDS011;71529;47.484;19.064;2023-11-19T02:32:53;10.43;;;7.38;;
82005;SDS011;71529;47.484;19.064;2023-11-19T02:35:24;12.30;;;8.65;;
82005;SDS011;71529;47.484;19.064;2023-11-19T02:37:53;10.88;;;8.15;;
82005;SDS011;71529;47.484;19.064;2023-11-19T02:40:22;13.27;;;7.95;;
82005;SDS011;71529;47.484;19.064;2023-11-19T02:42:53;12.70;;;8.57;;
82005;SDS011;71529;47.484;19.064;2023-11-19T02:45:22;10.80;;;7.65;;
82005;SDS011;71529;47.484;19.064;2023-11-19T02:47:52;13.55;;;8.25;;
82005;SDS011;71529;47.484;19.064;2023-11-19T02:50:21;13.55;;;8.25;;
82005;SDS011;71529;47.484;19.064;2023-11-19T02:52:53;14.38;;;8.55;;
82005;SDS011;71529;47.484;19.064;2023-11-19T02:55:24;10.27;;;7.32;;
82005;SDS011;71529;47.484;19.064;2023-11-19T02:57:56;13.93;;;8.63;;
82005;SDS011;71529;47.484;19.064;2023-11-19T03:00:26;11.95;;;7.78;;
82005;SDS011;71529;47.484;19.064;2023-11-19T03:03:02;16.55;;;9.75;;
82005;SDS011;71529;47.484;19.064;2023-11-19T03:05:47;12.25;;;8.48;;
82005;SDS011;71529;47.484;19.064;2023-11-19T03:08:15;12.35;;;8.27;;
82005;SDS011;71529;47.484;19.064;2023-11-19T03:10:46;13.30;;;8.48;;
82005;SDS011;71529;47.484;19.064;2023-11-19T03:13:16;13.93;;;8.27;;
82005;SDS011;71529;47.484;19.064;2023-11-19T03:15:45;13.85;;;9.23;;
82005;SDS011;71529;47.484;19.064;2023-11-19T03:18:13;11.93;;;8.55;;
82005;SDS011;71529;47.484;19.064;2023-11-19T03:20:42;13.32;;;8.27;;
82005;SDS011;71529;47.484;19.064;2023-11-19T03:23:10;11.25;;;8.25;;
82005;SDS011;71529;47.484;19.064;2023-11-19T03:25:39;10.88;;;7.53;;
82005;SDS011;71529;47.484;19.064;2023-11-19T03:28:07;13.70;;;8.38;;
82005;SDS011;71529;47.484;19.064;2023-11-19T03:30:36;17.48;;;8.48;;
82005;SDS011;71529;47.484;19.064;2023-11-19T03:33:05;13.80;;;9.23;;
82005;SDS011;71529;47.484;19.064;2023-11-19T03:35:33;11.80;;;8.45;;
82005;SDS011;71529;47.484;19.064;2023-11-19T03:38:01;12.48;;;8.07;;
82005;SDS011;71529;47.484;19.064;2023-11-19T03:40:30;13.32;;;8.73;;
82005;SDS011;71529;47.484;19.064;2023-11-19T03:42:58;10.00;;;7.20;;
82005;SDS011;71529;47.484;19.064;2023-11-19T03:45:26;12.77;;;8.25;;
82005;SDS011;71529;47.484;19.064;2023-11-19T03:47:56;14.35;;;8.50;;
82005;SDS011;71529;47.484;19.064;2023-11-19T03:50:24;16.17;;;9.50;;
82005;SDS011;71529;47.484;19.064;2023-11-19T03:52:52;11.30;;;8.27;;
82005;SDS011;71529;47.484;19.064;2023-11-19T03:55:20;12.43;;;8.85;;
82005;SDS011;71529;47.484;19.064;2023-11-19T03:57:49;13.13;;;8.18;;
82005;SDS011;71529;47.484;19.064;2023-11-19T04:00:17;16.98;;;11.18;;
82005;SDS011;71529;47.484;19.064;2023-11-19T04:02:48;20.17;;;9.30;;
82005;SDS011;71529;47.484;19.064;2023-11-19T04:05:17;15.30;;;9.15;;
82005;SDS011;71529;47.484;19.064;2023-11-19T04:07:46;12.35;;;8.32;;
82005;SDS011;71529;47.484;19.064;2023-11-19T04:10:14;11.13;;;8.35;;
82005;SDS011;71529;47.484;19.064;2023-11-19T04:12:44;10.88;;;8.52;;
82005;SDS011;71529;47.484;19.064;2023-11-19T04:15:12;15.90;;;8.73;;
82005;SDS011;71529;47.484;19.064;2023-11-19T04:17:42;14.35;;;9.23;;
82005;SDS011;71529;47.484;19.064;2023-11-19T04:20:10;13.98;;;7.97;;
82005;SDS011;71529;47.484;19.064;2023-11-19T04:22:42;11.77;;;8.45;;
82005;SDS011;71529;47.484;19.064;2023-11-19T04:25:11;13.75;;;9.00;;
82005;SDS011;71529;47.484;19.064;2023-11-19T04:27:40;12.82;;;9.20;;
82005;SDS011;71529;47.484;19.064;2023-11-19T04:30:09;12.85;;;8.52;;
82005;SDS011;71529;47.484;19.064;2023-11-19T04:32:38;12.57;;;8.30;;
82005;SDS011;71529;47.484;19.064;2023-11-19T04:35:07;11.93;;;8.52;;
82005;SDS011;71529;47.484;19.064;2023-11-19T04:37:36;15.05;;;9.27;;
82005;SDS011;71529;47.484;19.064;2023-11-19T04:40:07;11.68;;;8.52;;
82005;SDS011;71529;47.484;19.064;2023-11-19T04:42:35;11.07;;;8.52;;
82005;SDS011;71529;47.484;19.064;2023-11-19T04:45:04;10.65;;;7.65;;
82005;SDS011;71529;47.484;19.064;2023-11-19T04:47:34;12.52;;;8.68;;
82005;SDS011;71529;47.484;19.064;2023-11-19T04:50:02;12.68;;;7.97;;
82005;SDS011;71529;47.484;19.064;2023-11-19T04:52:31;10.70;;;7.30;;
82005;SDS011;71529;47.484;19.064;2023-11-19T04:54:59;11.57;;;8.43;;
82005;SDS011;71529;47.484;19.064;2023-11-19T04:57:29;12.52;;;8.77;;
82005;SDS011;71529;47.484;19.064;2023-11-19T04:59:58;10.05;;;7.60;;
82005;SDS011;71529;47.484;19.064;2023-11-19T05:02:25;11.93;;;8.30;;
82005;SDS011;71529;47.484;19.064;2023-11-19T05:04:53;10.30;;;7.53;;
82005;SDS011;71529;47.484;19.064;2023-11-19T05:07:21;11.88;;;7.65;;
82005;SDS011;71529;47.484;19.064;2023-11-19T05:09:50;13.23;;;7.57;;
82005;SDS011;71529;47.484;19.064;2023-11-19T05:12:18;11.18;;;7.78;;
82005;SDS011;71529;47.484;19.064;2023-11-19T05:14:48;10.82;;;7.53;;
82005;SDS011;71529;47.484;19.064;2023-11-19T05:17:17;10.10;;;7.20;;
82005;SDS011;71529;47.484;19.064;2023-11-19T05:19:46;14.77;;;7.05;;
82005;SDS011;71529;47.484;19.064;2023-11-19T05:22:15;13.80;;;7.88;;
82005;SDS011;71529;47.484;19.064;2023-11-19T05:24:43;10.05;;;7.22;;
82005;SDS011;71529;47.484;19.064;2023-11-19T05:27:11;10.60;;;8.07;;
82005;SDS011;71529;47.484;19.064;2023-11-19T05:29:40;11.85;;;7.85;;
82005;SDS011;71529;47.484;19.064;2023-11-19T05:32:11;11.23;;;7.78;;
82005;SDS011;71529;47.484;19.064;2023-11-19T05:34:39;9.57;;;7.22;;
82005;SDS011;71529;47.484;19.064;2023-11-19T05:37:11;10.85;;;7.90;;
82005;SDS011;71529;47.484;19.064;2023-11-19T05:39:39;11.85;;;7.75;;
82005;SDS011;71529;47.484;19.064;2023-11-19T05:42:07;11.88;;;7.47;;
82005;SDS011;71529;47.484;19.064;2023-11-19T05:44:36;9.32;;;6.85;;
82005;SDS011;71529;47.484;19.064;2023-11-19T05:47:07;18.92;;;8.20;;
82005;SDS011;71529;47.484;19.064;2023-11-19T05:49:36;10.85;;;8.15;;
82005;SDS011;71529;47.484;19.064;2023-11-19T05:52:05;12.70;;;7.53;;
82005;SDS011;71529;47.484;19.064;2023-11-19T05:54:34;12.30;;;8.40;;
82005;SDS011;71529;47.484;19.064;2023-11-19T05:57:04;17.10;;;8.95;;
82005;SDS011;71529;47.484;19.064;2023-11-19T05:59:33;11.75;;;8.27;;
82005;SDS011;71529;47.484;19.064;2023-11-19T06:02:02;14.25;;;8.32;;
82005;SDS011;71529;47.484;19.064;2023-11-19T06:04:30;11.48;;;7.72;;
82005;SDS011;71529;47.484;19.064;2023-11-19T06:07:00;15.50;;;9.15;;
82005;SDS011;71529;47.484;19.064;2023-11-19T06:09:28;13.95;;;9.13;;
82005;SDS011;71529;47.484;19.064;2023-11-19T06:11:56;18.40;;;9.65;;
82005;SDS011;71529;47.484;19.064;2023-11-19T06:14:24;17.83;;;9.13;;
82005;SDS011;71529;47.484;19.064;2023-11-19T06:16:53;13.02;;;8.90;;
82005;SDS011;71529;47.484;19.064;2023-11-19T06:19:21;13.38;;;8.40;;
82005;SDS011;71529;47.484;19.064;2023-11-19T06:21:54;13.10;;;8.80;;
82005;SDS011;71529;47.484;19.064;2023-11-19T06:24:23;11.85;;;8.82;;
82005;SDS011;71529;47.484;19.064;2023-11-19T06:26:52;14.98;;;8.55;;
82005;SDS011;71529;47.484;19.064;2023-11-19T06:29:20;14.90;;;9.52;;
82005;SDS011;71529;47.484;19.064;2023-11-19T06:31:49;14.18;;;8.73;;
82005;SDS011;71529;47.484;19.064;2023-11-19T06:34:17;16.83;;;10.00;;
82005;SDS011;71529;47.484;19.064;2023-11-19T06:36:45;15.38;;;9.77;;
82005;SDS011;71529;47.484;19.064;2023-11-19T06:39:15;18.27;;;9.50;;
82005;SDS011;71529;47.484;19.064;2023-11-19T06:41:45;17.80;;;9.48;;
82005;SDS011;71529;47.484;19.064;2023-11-19T06:44:14;12.18;;;9.20;;
82005;SDS011;71529;47.484;19.064;2023-11-19T06:46:42;15.98;;;10.25;;
82005;SDS011;71529;47.484;19.064;2023-11-19T06:49:11;15.70;;;9.32;;
82005;SDS011;71529;47.484;19.064;2023-11-19T06:51:41;15.77;;;10.27;;
82005;SDS011;71529;47.484;19.064;2023-11-19T06:54:10;14.38;;;9.57;;
82005;SDS011;71529;47.484;19.064;2023-11-19T06:56:39;17.42;;;10.25;;
82005;SDS011;71529;47.484;19.064;2023-11-19T06:59:10;17.17;;;10.85;;
82005;SDS011;71529;47.484;19.064;2023-11-19T07:01:38;18.25;;;10.55;;
82005;SDS011;71529;47.484;19.064;2023-11-19T07:04:06;16.40;;;11.70;;
82005;SDS011;71529;47.484;19.064;2023-11-19T07:06:36;15.05;;;9.98;;
82005;SDS011;71529;47.484;19.064;2023-11-19T07:09:04;17.77;;;11.25;;
82005;SDS011;71529;47.484;19.064;2023-11-19T07:11:37;19.10;;;10.90;;
82005;SDS011;71529;47.484;19.064;2023-11-19T07:14:06;16.58;;;10.70;;
82005;SDS011;71529;47.484;19.064;2023-11-19T07:16:36;16.02;;;10.30;;
82005;SDS011;71529;47.484;19.064;2023-11-19T07:19:05;18.92;;;11.68;;
82005;SDS011;71529;47.484;19.064;2023-11-19T07:21:34;15.55;;;10.02;;
82005;SDS011;71529;47.484;19.064;2023-11-19T07:24:06;16.23;;;11.40;;
82005;SDS011;71529;47.484;19.064;2023-11-19T07:26:35;14.63;;;10.75;;
82005;SDS011;71529;47.484;19.064;2023-11-19T07:29:04;17.85;;;10.80;;
82005;SDS011;71529;47.484;19.064;2023-11-19T07:31:35;16.65;;;10.73;;
82005;SDS011;71529;47.484;19.064;2023-11-19T07:34:04;17.33;;;10.90;;
82005;SDS011;71529;47.484;19.064;2023-11-19T07:36:33;15.02;;;10.20;;
82005;SDS011;71529;47.484;19.064;2023-11-19T07:39:03;16.92;;;10.13;;
82005;SDS011;71529;47.484;19.064;2023-11-19T07:41:31;16.42;;;10.80;;
82005;SDS011;71529;47.484;19.064;2023-11-19T07:44:00;19.67;;;12.43;;
82005;SDS011;71529;47.484;19.064;2023-11-19T07:46:28;15.55;;;10.70;;
82005;SDS011;71529;47.484;19.064;2023-11-19T07:48:58;16.50;;;10.75;;
82005;SDS011;71529;47.484;19.064;2023-11-19T07:51:26;13.13;;;9.65;;
82005;SDS011;71529;47.484;19.064;2023-11-19T07:53:54;13.23;;;10.13;;
82005;SDS011;71529;47.484;19.064;2023-11-19T07:56:23;13.93;;;9.85;;
82005;SDS011;71529;47.484;19.064;2023-11-19T07:58:51;14.52;;;9.82;;
82005;SDS011;71529;47.484;19.064;2023-11-19T08:01:19;15.98;;;9.77;;
82005;SDS011;71529;47.484;19.064;2023-11-19T08:03:50;13.35;;;9.40;;
82005;SDS011;71529;47.484;19.064;2023-11-19T08:06:22;14.52;;;9.80;;
82005;SDS011;71529;47.484;19.064;2023-11-19T08:08:50;14.75;;;10.20;;
82005;SDS011;71529;47.484;19.064;2023-11-19T08:11:19;14.90;;;10.68;;
82005;SDS011;71529;47.484;19.064;2023-11-19T08:13:47;15.90;;;9.23;;
82005;SDS011;71529;47.484;19.064;2023-11-19T08:16:15;12.98;;;8.98;;
82005;SDS011;71529;47.484;19.064;2023-11-19T08:18:44;13.85;;;8.93;;
82005;SDS011;71529;47.484;19.064;2023-11-19T08:21:12;14.38;;;9.70;;
82005;SDS011;71529;47.484;19.064;2023-11-19T08:23:41;16.15;;;10.02;;
82005;SDS011;71529;47.484;19.064;2023-11-19T08:26:10;14.57;;;10.45;;
82005;SDS011;71529;47.484;19.064;2023-11-19T08:28:38;20.35;;;11.05;;
82005;SDS011;71529;47.484;19.064;2023-11-19T08:31:06;14.20;;;10.43;;
82005;SDS011;71529;47.484;19.064;2023-11-19T08:33:35;12.60;;;9.27;;
82005;SDS011;71529;47.484;19.064;2023-11-19T08:36:04;13.05;;;10.15;;
82005;SDS011;71529;47.484;19.064;2023-11-19T08:38:33;16.40;;;10.48;;
82005;SDS011;71529;47.484;19.064;2023-11-19T08:41:03;15.85;;;9.98;;
82005;SDS011;71529;47.484;19.064;2023-11-19T08:43:32;14.38;;;9.38;;
82005;SDS011;71529;47.484;19.064;2023-11-19T08:46:01;15.43;;;10.43;;
82005;SDS011;71529;47.484;19.064;2023-11-19T08:48:29;16.00;;;10.68;;
82005;SDS011;71529;47.484;19.064;2023-11-19T08:50:58;16.10;;;10.85;;
82005;SDS011;71529;47.484;19.064;2023-11-19T08:53:27;16.90;;;10.23;;
82005;SDS011;71529;47.484;19.064;2023-11-19T08:55:55;13.60;;;10.35;;
82005;SDS011;71529;47.484;19.064;2023-11-19T08:58:25;14.00;;;9.63;;
82005;SDS011;71529;47.484;19.064;2023-11-19T09:00:53;16.83;;;10.00;;
82005;SDS011;71529;47.484;19.064;2023-11-19T09:03:22;16.10;;;11.18;;
82005;SDS011;71529;47.484;19.064;2023-11-19T09:05:53;14.85;;;9.45;;
82005;SDS011;71529;47.484;19.064;2023-11-19T09:08:21;13.50;;;10.05;;
82005;SDS011;71529;47.484;19.064;2023-11-19T09:10:50;20.30;;;10.57;;
82005;SDS011;71529;47.484;19.064;2023-11-19T09:13:19;13.50;;;9.63;;
82005;SDS011;71529;47.484;19.064;2023-11-19T09:15:48;18.83;;;10.32;;
82005;SDS011;71529;47.484;19.064;2023-11-19T09:18:17;13.68;;;10.55;;
82005;SDS011;71529;47.484;19.064;2023-11-19T09:20:45;14.40;;;10.23;;
82005;SDS011;71529;47.484;19.064;2023-11-19T09:23:14;17.58;;;10.52;;
82005;SDS011;71529;47.484;19.064;2023-11-19T09:25:42;13.85;;;9.80;;
82005;SDS011;71529;47.484;19.064;2023-11-19T09:28:11;15.20;;;11.00;;
82005;SDS011;71529;47.484;19.064;2023-11-19T09:30:39;17.55;;;10.82;;
82005;SDS011;71529;47.484;19.064;2023-11-19T09:33:09;19.77;;;11.60;;
82005;SDS011;71529;47.484;19.064;2023-11-19T09:35:37;16.70;;;11.63;;
82005;SDS011;71529;47.484;19.064;2023-11-19T09:38:06;13.80;;;9.35;;
82005;SDS011;71529;47.484;19.064;2023-11-19T09:40:34;13.98;;;9.55;;
82005;SDS011;71529;47.484;19.064;2023-11-19T09:43:02;14.23;;;9.55;;
82005;SDS011;71529;47.484;19.064;2023-11-19T09:45:31;14.38;;;10.32;;
82005;SDS011;71529;47.484;19.064;2023-11-19T09:50:36;10.07;;;8.50;;
82005;SDS011;71529;47.484;19.064;2023-11-19T09:53:04;15.27;;;9.15;;
82005;SDS011;71529;47.484;19.064;2023-11-19T09:55:33;13.00;;;8.85;;
82005;SDS011;71529;47.484;19.064;2023-11-19T09:58:01;12.82;;;9.80;;
82005;SDS011;71529;47.484;19.064;2023-11-19T10:00:30;13.32;;;9.38;;
82005;SDS011;71529;47.484;19.064;2023-11-19T10:02:59;12.48;;;9.18;;
82005;SDS011;71529;47.484;19.064;2023-11-19T10:05:28;12.77;;;9.77;;
82005;SDS011;71529;47.484;19.064;2023-11-19T10:07:58;14.95;;;11.20;;
82005;SDS011;71529;47.484;19.064;2023-11-19T10:10:26;13.73;;;10.20;;
82005;SDS011;71529;47.484;19.064;2023-11-19T10:12:54;16.00;;;10.65;;
82005;SDS011;71529;47.484;19.064;2023-11-19T10:15:24;16.33;;;11.38;;
82005;SDS011;71529;47.484;19.064;2023-11-19T10:17:55;16.63;;;10.45;;
82005;SDS011;71529;47.484;19.064;2023-11-19T10:20:24;20.00;;;10.77;;
82005;SDS011;71529;47.484;19.064;2023-11-19T10:22:52;15.55;;;10.82;;
82005;SDS011;71529;47.484;19.064;2023-11-19T10:25:22;14.23;;;10.18;;
82005;SDS011;71529;47.484;19.064;2023-11-19T10:27:52;14.68;;;10.65;;
82005;SDS011;71529;47.484;19.064;2023-11-19T10:30:22;14.23;;;9.95;;
82005;SDS011;71529;47.484;19.064;2023-11-19T10:33:05;14.52;;;11.43;;
82005;SDS011;71529;47.484;19.064;2023-11-19T10:35:35;15.70;;;10.38;;
82005;SDS011;71529;47.484;19.064;2023-11-19T10:38:13;15.60;;;11.05;;
82005;SDS011;71529;47.484;19.064;2023-11-19T10:40:43;14.85;;;10.57;;
82005;SDS011;71529;47.484;19.064;2023-11-19T10:43:12;14.35;;;10.27;;
82005;SDS011;71529;47.484;19.064;2023-11-19T10:45:40;15.65;;;11.27;;
82005;SDS011;71529;47.484;19.064;2023-11-19T10:48:09;35.38;;;22.33;;
82005;SDS011;71529;47.484;19.064;2023-11-19T10:50:40;18.45;;;12.98;;
82005;SDS011;71529;47.484;19.064;2023-11-19T10:53:09;14.25;;;11.25;;
82005;SDS011;71529;47.484;19.064;2023-11-19T10:55:39;22.65;;;11.88;;
82005;SDS011;71529;47.484;19.064;2023-11-19T10:58:09;17.92;;;11.38;;
82005;SDS011;71529;47.484;19.064;2023-11-19T11:00:38;19.02;;;11.00;;
82005;SDS011;71529;47.484;19.064;2023-11-19T11:03:14;17.88;;;11.63;;
82005;SDS011;71529;47.484;19.064;2023-11-19T11:05:45;17.60;;;11.35;;
82005;SDS011;71529;47.484;19.064;2023-11-19T11:08:15;16.08;;;11.23;;
82005;SDS011;71529;47.484;19.064;2023-11-19T11:10:44;17.48;;;11.20;;
82005;SDS011;71529;47.484;19.064;2023-11-19T11:13:17;16.60;;;11.15;;
82005;SDS011;71529;47.484;19.064;2023-11-19T11:15:46;16.60;;;11.05;;
82005;SDS011;71529;47.484;19.064;2023-11-19T11:18:16;17.35;;;11.10;;
82005;SDS011;71529;47.484;19.064;2023-11-19T11:20:45;13.43;;;10.05;;
82005;SDS011;71529;47.484;19.064;2023-11-19T11:26:26;13.05;;;9.63;;
82005;SDS011;71529;47.484;19.064;2023-11-19T11:29:10;16.23;;;10.60;;
82005;SDS011;71529;47.484;19.064;2023-11-19T11:31:48;16.63;;;10.48;;
82005;SDS011;71529;47.484;19.064;2023-11-19T11:37:21;15.82;;;11.55;;
82005;SDS011;71529;47.484;19.064;2023-11-19T11:39:54;16.63;;;10.65;;
82005;SDS011;71529;47.484;19.064;2023-11-19T11:42:32;17.10;;;11.35;;
82005;SDS011;71529;47.484;19.064;2023-11-19T11:45:03;13.80;;;10.23;;
82005;SDS011;71529;47.484;19.064;2023-11-19T11:50:49;11.52;;;9.13;;
82005;SDS011;71529;47.484;19.064;2023-11-19T11:53:19;12.63;;;8.90;;
82005;SDS011;71529;47.484;19.064;2023-11-19T11:55:56;14.60;;;9.82;;
82005;SDS011;71529;47.484;19.064;2023-11-19T11:58:27;16.58;;;9.73;;
82005;SDS011;71529;47.484;19.064;2023-11-19T12:01:00;12.27;;;9.57;;
82005;SDS011;71529;47.484;19.064;2023-11-19T12:03:29;16.08;;;9.27;;
82005;SDS011;71529;47.484;19.064;2023-11-19T12:05:59;12.73;;;9.68;;
82005;SDS011;71529;47.484;19.064;2023-11-19T12:08:28;13.02;;;9.70;;
82005;SDS011;71529;47.484;19.064;2023-11-19T12:10:58;14.18;;;9.20;;
82005;SDS011;71529;47.484;19.064;2023-11-19T12:13:42;12.00;;;8.82;;
82005;SDS011;71529;47.484;19.064;2023-11-19T12:16:16;15.30;;;9.90;;
82005;SDS011;71529;47.484;19.064;2023-11-19T12:18:44;11.85;;;8.65;;
82005;SDS011;71529;47.484;19.064;2023-11-19T12:21:27;15.70;;;10.82;;
82005;SDS011;71529;47.484;19.064;2023-11-19T12:23:56;12.38;;;8.73;;
82005;SDS011;71529;47.484;19.064;2023-11-19T12:26:31;12.80;;;9.52;;
82005;SDS011;71529;47.484;19.064;2023-11-19T12:29:04;15.40;;;9.25;;
82005;SDS011;71529;47.484;19.064;2023-11-19T12:31:36;13.35;;;8.65;;
82005;SDS011;71529;47.484;19.064;2023-11-19T12:34:06;12.52;;;8.95;;
82005;SDS011;71529;47.484;19.064;2023-11-19T12:39:09;12.60;;;9.18;;
82005;SDS011;71529;47.484;19.064;2023-11-19T12:41:49;12.73;;;8.35;;
82005;SDS011;71529;47.484;19.064;2023-11-19T12:44:19;13.38;;;9.50;;
82005;SDS011;71529;47.484;19.064;2023-11-19T12:47:00;11.88;;;9.23;;
82005;SDS011;71529;47.484;19.064;2023-11-19T12:49:33;10.95;;;8.43;;
82005;SDS011;71529;47.484;19.064;2023-11-19T12:52:02;11.05;;;7.93;;
82005;SDS011;71529;47.484;19.064;2023-11-19T12:54:39;10.57;;;7.90;;
82005;SDS011;71529;47.484;19.064;2023-11-19T12:57:08;12.32;;;8.93;;
82005;SDS011;71529;47.484;19.064;2023-11-19T12:59:36;11.32;;;7.70;;
82005;SDS011;71529;47.484;19.064;2023-11-19T13:02:05;13.13;;;8.80;;
82005;SDS011;71529;47.484;19.064;2023-11-19T13:04:34;10.57;;;8.15;;
82005;SDS011;71529;47.484;19.064;2023-11-19T13:07:03;11.60;;;8.93;;
82005;SDS011;71529;47.484;19.064;2023-11-19T13:09:33;12.23;;;8.32;;
82005;SDS011;71529;47.484;19.064;2023-11-19T13:12:11;27.50;;;15.43;;
82005;SDS011;71529;47.484;19.064;2023-11-19T13:14:41;15.07;;;9.55;;
82005;SDS011;71529;47.484;19.064;2023-11-19T13:17:15;12.15;;;8.13;;
82005;SDS011;71529;47.484;19.064;2023-11-19T13:19:46;16.20;;;8.88;;
82005;SDS011;71529;47.484;19.064;2023-11-19T13:22:15;13.32;;;9.15;;
82005;SDS011;71529;47.484;19.064;2023-11-19T13:24:43;12.65;;;8.38;;
82005;SDS011;71529;47.484;19.064;2023-11-19T13:27:13;10.48;;;7.68;;
82005;SDS011;71529;47.484;19.064;2023-11-19T13:29:41;11.05;;;8.00;;
82005;SDS011;71529;47.484;19.064;2023-11-19T13:32:10;10.73;;;8.18;;
82005;SDS011;71529;47.484;19.064;2023-11-19T13:34:39;12.23;;;7.95;;
82005;SDS011;71529;47.484;19.064;2023-11-19T13:37:07;10.20;;;7.95;;
82005;SDS011;71529;47.484;19.064;2023-11-19T13:39:36;13.43;;;7.80;;
82005;SDS011;71529;47.484;19.064;2023-11-19T13:42:09;11.98;;;7.60;;
82005;SDS011;71529;47.484;19.064;2023-11-19T13:44:39;9.82;;;7.45;;
82005;SDS011;71529;47.484;19.064;2023-11-19T13:47:09;13.25;;;8.23;;
82005;SDS011;71529;47.484;19.064;2023-11-19T13:49:37;11.23;;;7.35;;
82005;SDS011;71529;47.484;19.064;2023-11-19T13:52:07;11.75;;;7.72;;
82005;SDS011;71529;47.484;19.064;2023-11-19T13:54:36;10.57;;;7.80;;
82005;SDS011;71529;47.484;19.064;2023-11-19T13:57:05;10.63;;;7.35;;
82005;SDS011;71529;47.484;19.064;2023-11-19T13:59:34;12.48;;;7.43;;
82005;SDS011;71529;47.484;19.064;2023-11-19T14:02:07;9.70;;;7.40;;
82005;SDS011;71529;47.484;19.064;2023-11-19T14:04:36;11.60;;;7.57;;
82005;SDS011;71529;47.484;19.064;2023-11-19T14:07:05;10.55;;;7.60;;
82005;SDS011;71529;47.484;19.064;2023-11-19T14:09:34;10.48;;;8.07;;
82005;SDS011;71529;47.484;19.064;2023-11-19T14:12:04;18.95;;;12.27;;
82005;SDS011;71529;47.484;19.064;2023-11-19T14:14:32;16.02;;;9.07;;
82005;SDS011;71529;47.484;19.064;2023-11-19T14:17:01;13.55;;;9.13;;
82005;SDS011;71529;47.484;19.064;2023-11-19T14:19:34;12.13;;;8.80;;
82005;SDS011;71529;47.484;19.064;2023-11-19T14:22:02;12.10;;;8.60;;
82005;SDS011;71529;47.484;19.064;2023-11-19T14:24:30;12.75;;;8.25;;
82005;SDS011;71529;47.484;19.064;2023-11-19T14:27:00;12.80;;;8.52;;
82005;SDS011;71529;47.484;19.064;2023-11-19T14:29:28;13.38;;;7.53;;
82005;SDS011;71529;47.484;19.064;2023-11-19T14:31:57;14.20;;;7.80;;
82005;SDS011;71529;47.484;19.064;2023-11-19T14:34:26;10.40;;;7.47;;
82005;SDS011;71529;47.484;19.064;2023-11-19T14:36:54;11.05;;;7.13;;
82005;SDS011;71529;47.484;19.064;2023-11-19T14:39:22;11.10;;;7.68;;
82005;SDS011;71529;47.484;19.064;2023-11-19T14:41:51;10.32;;;7.35;;
82005;SDS011;71529;47.484;19.064;2023-11-19T14:44:22;12.02;;;7.85;;
82005;SDS011;71529;47.484;19.064;2023-11-19T14:46:51;14.30;;;8.43;;